Time;durP1;ratioP1;P1;durP2;ratioP2;P2;SDS_P1;SDS_P2;PMS_P1;PMS_P2;Temp;Humidity;BMP_temperature;BMP_pressure;BME280_temperature;BME280_humidity;BME280_pressure;Samples;Min_cycle;Max_cycle;Signal;HPM_P1;HPM_P2
2021/12/27 00:01:25;;;;;;;2.03;1.45;;;4.70;99.90;;;;;;4994562;28;20050;-73
2021/12/27 00:03:53;;;;;;;1.52;1.20;;;4.70;99.90;;;;;;4980268;28;20232;-73
2021/12/27 00:06:20;;;;;;;1.13;0.98;;;4.70;99.90;;;;;;4979267;28;20050;-72
2021/12/27 00:08:46;;;;;;;;;;;4.70;99.90;;;;;;4980639;28;20116;-72
2021/12/27 00:11:14;;;;;;;2.42;1.48;;;4.70;99.90;;;;;;4978835;28;19964;-73
2021/12/27 00:13:41;;;;;;;3.83;1.50;;;4.70;99.90;;;;;;4979445;28;20074;-73
2021/12/27 00:16:08;;;;;;;2.00;1.58;;;4.70;99.90;;;;;;4979208;28;20105;-73
2021/12/27 00:18:36;;;;;;;1.70;1.60;;;4.70;99.90;;;;;;4981271;28;20076;-73
2021/12/27 00:21:03;;;;;;;5.28;1.38;;;4.70;99.90;;;;;;4979740;28;20042;-72
2021/12/27 00:23:30;;;;;;;2.88;1.60;;;4.70;99.90;;;;;;4979072;28;20081;-73
2021/12/27 00:25:57;;;;;;;1.58;1.48;;;4.70;99.90;;;;;;4979689;28;20102;-73
2021/12/27 00:28:24;;;;;;;2.03;1.10;;;4.70;99.90;;;;;;4979849;28;20054;-73
2021/12/27 00:30:51;;;;;;;;;;;4.70;99.90;;;;;;4979345;28;20043;-73
2021/12/27 00:33:17;;;;;;;3.10;1.75;;;4.70;99.90;;;;;;4979266;28;20007;-73
2021/12/27 00:35:46;;;;;;;2.22;1.55;;;4.70;99.90;;;;;;4977766;28;20794;-73
2021/12/27 00:38:12;;;;;;;4.10;1.42;;;4.80;99.90;;;;;;4979298;28;20117;-72
2021/12/27 00:40:39;;;;;;;;;;;4.80;99.90;;;;;;4979566;28;20096;-73
2021/12/27 00:43:06;;;;;;;2.20;1.80;;;4.80;99.90;;;;;;4979092;28;19984;-72
2021/12/27 00:45:33;;;;;;;;;;;4.80;99.90;;;;;;4979053;28;20116;-73
2021/12/27 00:47:59;;;;;;;1.55;1.45;;;4.70;99.90;;;;;;4979304;28;19929;-73
2021/12/27 00:50:26;;;;;;;;;;;4.70;99.90;;;;;;4992290;28;20049;-73
2021/12/27 00:52:53;;;;;;;2.10;1.65;;;4.70;99.90;;;;;;4998655;28;19933;-73
2021/12/27 00:55:20;;;;;;;;;;;4.70;99.90;;;;;;4996482;28;20046;-72
2021/12/27 00:57:48;;;;;;;2.15;1.35;;;4.70;99.90;;;;;;4979438;28;20829;-72
2021/12/27 01:00:17;;;;;;;1.55;1.40;;;4.70;99.90;;;;;;4977404;28;20850;-73
2021/12/27 01:02:46;;;;;;;4.65;1.95;;;4.70;99.90;;;;;;4978937;28;20057;-72
2021/12/27 01:05:14;;;;;;;3.92;1.55;;;4.70;99.90;;;;;;4979097;28;20508;-72
2021/12/27 01:07:41;;;;;;;5.55;1.77;;;4.70;99.90;;;;;;4977976;28;20050;-72
2021/12/27 01:13:01;;;;;;;1.88;1.40;;;4.70;99.90;;;;;;4978424;28;20054;-73
2021/12/27 01:15:48;;;;;;;;;;;4.70;99.90;;;;;;4979435;28;20109;-72
2021/12/27 01:18:19;;;;;;;3.13;1.58;;;4.70;99.90;;;;;;4979165;28;20008;-72
2021/12/27 01:20:46;;;;;;;3.63;1.60;;;4.70;99.90;;;;;;4977956;28;20042;-73
2021/12/27 01:23:13;;;;;;;1.80;1.58;;;4.70;99.90;;;;;;4977917;28;20034;-72
2021/12/27 01:25:40;;;;;;;;;;;4.70;99.90;;;;;;4978649;28;20085;-72
2021/12/27 01:28:08;;;;;;;2.78;1.42;;;4.70;99.90;;;;;;4977676;28;19925;-73
2021/12/27 01:30:38;;;;;;;2.10;1.65;;;4.70;99.90;;;;;;4977647;28;20066;-73
2021/12/27 01:33:06;;;;;;;1.73;1.33;;;4.70;99.90;;;;;;4978528;28;20053;-72
2021/12/27 01:35:35;;;;;;;2.28;1.67;;;4.70;99.90;;;;;;4978073;28;20542;-72
2021/12/27 01:38:02;;;;;;;1.73;1.60;;;4.70;99.90;;;;;;4978270;28;20046;-73
2021/12/27 01:40:29;;;;;;;1.45;1.35;;;4.70;99.90;;;;;;4977969;28;20104;-72
2021/12/27 01:43:01;;;;;;;1.13;1.00;;;4.70;99.90;;;;;;4978232;28;20042;-72
2021/12/27 01:45:28;;;;;;;3.83;1.67;;;4.70;99.90;;;;;;4993019;28;20050;-73
2021/12/27 01:47:55;;;;;;;1.70;1.60;;;4.70;99.90;;;;;;4978559;28;20049;-73
2021/12/27 01:50:22;;;;;;;;;;;4.70;99.90;;;;;;4990563;28;20042;-73
2021/12/27 01:52:49;;;;;;;3.60;1.10;;;4.70;99.90;;;;;;4997478;28;19961;-72
2021/12/27 01:55:16;;;;;;;1.52;1.42;;;4.70;99.90;;;;;;4980750;28;20054;-73
2021/12/27 01:57:43;;;;;;;2.95;1.80;;;4.70;99.90;;;;;;4977726;28;20795;-72
2021/12/27 02:00:11;;;;;;;1.52;1.40;;;4.70;99.90;;;;;;4977363;28;20569;-73
2021/12/27 02:02:46;;;;;;;1.55;1.42;;;4.70;99.90;;;;;;4977130;28;20048;-72
2021/12/27 02:05:14;;;;;;;1.35;1.20;;;4.70;99.90;;;;;;4978362;28;20050;-72
2021/12/27 02:07:41;;;;;;;2.80;1.80;;;4.70;99.90;;;;;;4977582;28;20105;-73
2021/12/27 02:10:10;;;;;;;2.17;1.20;;;4.70;99.90;;;;;;4977651;28;20050;-73
2021/12/27 02:12:38;;;;;;;1.60;1.40;;;4.70;99.90;;;;;;4992065;28;20054;-72
2021/12/27 02:15:09;;;;;;;1.30;1.20;;;4.70;99.90;;;;;;4977770;28;20049;-71
2021/12/27 02:17:41;;;;;;;1.73;1.20;;;4.70;99.90;;;;;;4979158;28;20054;-73
2021/12/27 02:20:17;;;;;;;2.95;1.88;;;4.70;99.90;;;;;;4975649;28;20499;-72
2021/12/27 02:22:46;;;;;;;1.95;1.48;;;4.70;99.90;;;;;;4977687;28;20050;-73
2021/12/27 02:25:15;;;;;;;5.57;1.27;;;4.60;99.90;;;;;;4977675;28;20484;-72
2021/12/27 02:27:45;;;;;;;4.03;1.30;;;4.60;99.90;;;;;;4977930;28;20054;-73
2021/12/27 02:30:17;;;;;;;2.78;1.60;;;4.60;99.90;;;;;;4976782;28;20065;-73
2021/12/27 02:32:51;;;;;;;1.23;1.13;;;4.60;99.90;;;;;;4979978;28;20205;-72
2021/12/27 02:35:27;;;;;;;1.95;1.45;;;4.60;99.90;;;;;;4980920;28;20100;-73
2021/12/27 02:37:56;;;;;;;1.20;1.10;;;4.60;99.90;;;;;;4981352;28;20374;-72
2021/12/27 02:40:25;;;;;;;1.10;1.00;;;4.60;99.90;;;;;;4981081;28;21043;-73
2021/12/27 02:43:01;;;;;;;1.95;1.30;;;4.60;99.90;;;;;;4980976;28;20046;-72
2021/12/27 02:45:30;;;;;;;1.52;1.30;;;4.60;99.90;;;;;;4981122;28;20109;-72
2021/12/27 02:47:57;;;;;;;1.13;1.00;;;4.60;99.90;;;;;;4981840;28;20046;-72
2021/12/27 02:50:25;;;;;;;1.33;1.10;;;4.70;99.90;;;;;;4993585;28;20108;-72
2021/12/27 02:52:53;;;;;;;1.30;1.05;;;4.70;99.90;;;;;;5000669;28;20054;-72
2021/12/27 02:55:19;;;;;;;1.33;1.23;;;4.70;99.90;;;;;;4983554;28;20811;-74
2021/12/27 02:57:47;;;;;;;;;;;4.70;99.90;;;;;;4981779;28;20038;-73
2021/12/27 03:00:40;;;;;;;1.30;1.20;;;4.70;99.90;;;;;;4980998;28;19969;-72
2021/12/27 03:03:08;;;;;;;3.90;1.38;;;4.70;99.90;;;;;;4980828;28;20045;-72
2021/12/27 03:05:34;;;;;;;1.70;1.00;;;4.70;99.90;;;;;;4980944;28;20108;-72
2021/12/27 03:08:02;;;;;;;;;;;4.70;99.90;;;;;;4981619;28;20054;-73
2021/12/27 03:10:32;;;;;;;3.10;0.82;;;4.70;99.90;;;;;;4980827;28;19984;-72
2021/12/27 03:13:02;;;;;;;2.58;1.02;;;4.70;99.90;;;;;;4980832;28;20124;-73
2021/12/27 03:15:29;;;;;;;0.73;0.73;;;4.70;99.90;;;;;;4981376;28;20050;-73
2021/12/27 03:17:56;;;;;;;0.63;0.57;;;4.70;99.90;;;;;;4983051;28;20046;-73
2021/12/27 03:20:25;;;;;;;1.10;1.00;;;4.70;99.90;;;;;;4979609;28;20049;-71
2021/12/27 03:22:53;;;;;;;15.60;2.55;;;4.70;99.90;;;;;;4981121;28;20046;-72
2021/12/27 03:25:23;;;;;;;5.53;1.00;;;4.70;99.90;;;;;;4980176;28;20053;-72
2021/12/27 03:27:50;;;;;;;1.17;1.08;;;4.70;99.90;;;;;;4980523;28;20050;-73
2021/12/27 03:30:19;;;;;;;;;;;4.80;99.90;;;;;;4980406;28;20053;-73
2021/12/27 03:32:45;;;;;;;4.32;1.75;;;4.70;99.90;;;;;;4980921;28;20433;-72
2021/12/27 03:35:15;;;;;;;;;;;4.70;99.90;;;;;;4981325;28;20046;-72
2021/12/27 03:37:48;;;;;;;1.40;1.05;;;4.70;99.90;;;;;;4981043;28;19926;-72
2021/12/27 03:40:16;;;;;;;3.45;1.00;;;4.70;99.90;;;;;;4980282;28;20035;-73
2021/12/27 03:42:49;;;;;;;1.60;0.90;;;4.70;99.90;;;;;;4979072;28;20035;-73
2021/12/27 03:45:28;;;;;;;2.42;1.20;;;4.70;99.90;;;;;;4980684;28;20042;-73
2021/12/27 03:47:56;;;;;;;4.35;1.38;;;4.60;99.90;;;;;;4980625;28;20534;-73
2021/12/27 03:50:24;;;;;;;1.45;1.10;;;4.60;99.90;;;;;;4992262;28;20100;-72
2021/12/27 03:52:58;;;;;;;1.23;1.08;;;4.60;99.90;;;;;;4982370;28;20042;-72
2021/12/27 03:55:25;;;;;;;0.85;0.85;;;4.60;99.90;;;;;;4982282;28;20046;-72
2021/12/27 03:57:55;;;;;;;1.02;0.93;;;4.60;99.90;;;;;;4979847;28;20046;-72
2021/12/27 04:02:55;;;;;;;1.83;1.30;;;4.60;99.90;;;;;;4974868;28;20478;-72
2021/12/27 04:05:22;;;;;;;0.90;0.85;;;4.60;99.90;;;;;;4979561;28;20152;-73
2021/12/27 04:07:57;;;;;;;1.98;1.00;;;4.50;99.90;;;;;;4980507;28;20140;-72
2021/12/27 04:10:24;;;;;;;1.20;1.00;;;4.50;99.90;;;;;;4979601;28;20116;-72
2021/12/27 04:12:50;;;;;;;;;;;4.50;99.90;;;;;;4980062;28;20054;-72
2021/12/27 04:15:17;;;;;;;10.75;4.45;;;4.60;99.90;;;;;;4979781;28;20027;-72
2021/12/27 04:17:44;;;;;;;;;;;4.50;99.90;;;;;;4982403;28;20050;-72
2021/12/27 04:20:11;;;;;;;1.75;1.25;;;4.50;99.90;;;;;;4978945;28;19972;-72
2021/12/27 04:22:38;;;;;;;2.38;1.27;;;4.50;99.90;;;;;;4979832;28;20043;-72
2021/12/27 04:25:14;;;;;;;2.00;1.70;;;4.50;99.90;;;;;;4979493;28;20638;-72
2021/12/27 04:27:42;;;;;;;1.23;1.13;;;4.50;99.90;;;;;;4979510;28;20096;-72
2021/12/27 04:30:09;;;;;;;2.15;1.40;;;4.50;99.90;;;;;;4979293;28;20053;-72
2021/12/27 04:32:36;;;;;;;1.73;1.50;;;4.50;99.90;;;;;;4994589;28;20050;-72
2021/12/27 04:35:03;;;;;;;;;;;4.50;99.90;;;;;;4980271;28;20383;-72
2021/12/27 04:37:30;;;;;;;1.73;1.23;;;4.50;99.90;;;;;;4979674;28;19988;-72
2021/12/27 04:39:57;;;;;;;;;;;4.50;99.90;;;;;;4980031;28;20141;-72
2021/12/27 04:42:25;;;;;;;1.15;1.05;;;4.50;99.90;;;;;;4978997;28;19926;-72
2021/12/27 04:44:52;;;;;;;2.83;2.15;;;4.50;99.90;;;;;;4979584;28;20104;-72
2021/12/27 04:47:23;;;;;;;1.65;1.17;;;4.50;99.90;;;;;;4978610;28;20503;-72
2021/12/27 04:49:50;;;;;;;3.40;1.20;;;4.50;99.90;;;;;;4986787;28;20073;-72
2021/12/27 04:52:17;;;;;;;;;;;4.50;99.90;;;;;;4999531;28;21003;-73
2021/12/27 04:54:44;;;;;;;1.00;1.00;;;4.50;99.90;;;;;;4985583;28;19980;-72
2021/12/27 04:57:11;;;;;;;;;;;4.50;99.90;;;;;;4978185;28;20566;-73
2021/12/27 04:59:37;;;;;;;5.40;1.50;;;4.40;99.90;;;;;;4978513;28;19976;-72
2021/12/27 05:02:04;;;;;;;;;;;4.40;99.90;;;;;;4980142;28;20205;-73
2021/12/27 05:04:31;;;;;;;1.25;1.00;;;4.40;99.90;;;;;;4978905;28;19925;-73
2021/12/27 05:06:58;;;;;;;1.20;1.10;;;4.40;99.90;;;;;;4979788;28;20046;-72
2021/12/27 05:09:25;;;;;;;1.33;0.90;;;4.40;99.90;;;;;;4979144;28;20077;-72
2021/12/27 05:11:52;;;;;;;;;;;4.40;99.90;;;;;;4979062;28;20508;-72
2021/12/27 05:14:18;;;;;;;1.98;1.23;;;4.30;99.90;;;;;;4977601;28;19926;-72
2021/12/27 05:16:45;;;;;;;1.88;1.35;;;4.20;99.90;;;;;;4979501;28;20494;-72
2021/12/27 05:19:12;;;;;;;1.08;0.90;;;4.20;99.90;;;;;;4977837;28;20046;-71
2021/12/27 05:21:39;;;;;;;;;;;4.20;99.90;;;;;;4979806;28;20046;-72
2021/12/27 05:24:07;;;;;;;2.40;1.70;;;4.20;99.90;;;;;;4994415;28;19977;-72
2021/12/27 05:26:33;;;;;;;1.30;1.20;;;4.10;99.90;;;;;;4978784;28;20104;-71
2021/12/27 05:29:00;;;;;;;1.92;1.15;;;4.10;99.90;;;;;;4977033;28;20057;-70
2021/12/27 05:31:30;;;;;;;2.15;1.20;;;4.00;99.90;;;;;;4979209;28;20643;-71
2021/12/27 05:33:57;;;;;;;1.48;1.20;;;4.00;99.90;;;;;;4979180;28;20100;-71
2021/12/27 05:36:23;;;;;;;;;;;3.90;99.90;;;;;;4979892;28;20100;-71
2021/12/27 05:38:50;;;;;;;1.13;1.02;;;3.90;99.90;;;;;;4979541;28;20472;-70
2021/12/27 05:41:17;;;;;;;0.80;0.80;;;3.90;99.90;;;;;;4979717;28;20788;-71
2021/12/27 05:43:44;;;;;;;;;;;3.80;99.90;;;;;;4980815;28;20042;-71
2021/12/27 05:46:11;;;;;;;1.00;0.90;;;3.80;99.90;;;;;;4980325;28;19936;-71
2021/12/27 05:48:38;;;;;;;1.40;1.02;;;3.80;99.90;;;;;;4982402;28;20050;-72
2021/12/27 05:51:05;;;;;;;2.25;1.30;;;3.80;99.90;;;;;;4995395;28;20045;-70
2021/12/27 05:53:31;;;;;;;;;;;3.80;99.90;;;;;;4998226;28;20054;-70
2021/12/27 05:55:58;;;;;;;1.20;1.08;;;3.80;99.90;;;;;;4979420;28;19925;-70
2021/12/27 05:58:25;;;;;;;;;;;3.80;99.90;;;;;;4980642;28;20453;-68
2021/12/27 06:00:52;;;;;;;1.55;1.10;;;3.80;99.90;;;;;;4979356;28;19980;-72
2021/12/27 06:03:20;;;;;;;1.92;1.00;;;3.80;99.90;;;;;;4979628;28;20101;-71
2021/12/27 06:05:47;;;;;;;2.90;1.20;;;3.80;99.90;;;;;;4979184;28;20773;-73
2021/12/27 06:08:13;;;;;;;;;;;3.80;99.90;;;;;;4980680;28;20046;-72
2021/12/27 06:10:40;;;;;;;1.17;1.05;;;3.70;99.90;;;;;;4979345;28;19974;-71
2021/12/27 06:13:07;;;;;;;2.25;1.58;;;3.70;99.90;;;;;;4979157;28;20054;-72
2021/12/27 06:15:34;;;;;;;1.83;1.20;;;3.70;99.90;;;;;;4979996;28;20144;-72
2021/12/27 06:18:01;;;;;;;2.55;1.55;;;3.70;99.90;;;;;;4981064;28;20050;-73
2021/12/27 06:20:28;;;;;;;;;;;3.70;99.90;;;;;;4980462;28;20716;-72
2021/12/27 06:22:57;;;;;;;3.83;1.52;;;3.60;99.90;;;;;;4982428;28;19961;-72
2021/12/27 06:25:24;;;;;;;5.50;1.52;;;3.60;99.90;;;;;;4980867;28;20062;-70
2021/12/27 06:27:51;;;;;;;5.63;2.28;;;3.60;99.90;;;;;;4978449;28;20069;-72
2021/12/27 06:30:20;;;;;;;2.55;1.38;;;3.60;99.90;;;;;;4977846;28;20104;-72
2021/12/27 06:32:47;;;;;;;7.57;2.13;;;3.70;99.90;;;;;;4976384;28;20058;-67
2021/12/27 06:35:16;;;;;;;1.80;1.45;;;3.70;99.90;;;;;;4975704;28;20723;-63
2021/12/27 06:37:44;;;;;;;1.10;1.00;;;3.70;99.90;;;;;;4979989;28;20702;-66
2021/12/27 06:40:12;;;;;;;1.77;1.27;;;3.70;99.90;;;;;;4994663;28;20472;-66
2021/12/27 06:42:40;;;;;;;3.97;1.25;;;3.70;99.90;;;;;;4995076;28;20536;-68
2021/12/27 06:45:07;;;;;;;4.53;1.20;;;3.70;99.90;;;;;;4976194;28;20053;-57
2021/12/27 06:47:34;;;;;;;1.65;1.13;;;3.60;99.90;;;;;;4976337;28;20122;-57
2021/12/27 06:50:01;;;;;;;1.15;1.05;;;3.60;99.90;;;;;;4983207;28;20046;-57
2021/12/27 06:52:28;;;;;;;1.45;1.17;;;3.60;99.90;;;;;;4977199;28;20493;-57
2021/12/27 06:54:54;;;;;;;;;;;3.50;99.90;;;;;;4989948;28;20049;-60
2021/12/27 06:57:29;;;;;;;1.73;1.40;;;3.50;99.90;;;;;;4996394;28;19933;-57
2021/12/27 06:59:56;;;;;;;1.40;1.30;;;3.50;99.90;;;;;;4995572;28;20045;-57
2021/12/27 07:02:24;;;;;;;3.35;1.10;;;3.40;99.90;;;;;;4995887;28;20053;-57
2021/12/27 07:04:51;;;;;;;1.60;1.38;;;3.50;99.90;;;;;;4996046;28;20093;-57
2021/12/27 07:07:19;;;;;;;1.67;1.25;;;3.50;99.90;;;;;;4995705;28;20065;-58
2021/12/27 07:09:46;;;;;;;2.10;1.33;;;3.50;99.90;;;;;;4995286;28;20750;-57
2021/12/27 07:12:13;;;;;;;6.15;3.33;;;3.50;99.90;;;;;;4996082;28;20054;-57
2021/12/27 07:14:40;;;;;;;4.75;2.13;;;3.40;99.90;;;;;;4996666;28;20045;-58
2021/12/27 07:17:08;;;;;;;1.63;1.40;;;3.40;99.90;;;;;;4995447;28;20038;-58
2021/12/27 07:19:35;;;;;;;2.05;1.85;;;3.40;99.90;;;;;;4986781;28;20115;-60
2021/12/27 07:22:02;;;;;;;3.65;1.60;;;3.40;99.90;;;;;;4979623;28;20042;-56
2021/12/27 07:24:29;;;;;;;3.28;1.52;;;3.30;99.90;;;;;;4980019;28;20054;-56
2021/12/27 07:26:56;;;;;;;;;;;3.30;99.90;;;;;;5000453;28;20056;-56
2021/12/27 07:29:22;;;;;;;2.30;1.85;;;3.30;99.90;;;;;;4997832;28;20631;-58
2021/12/27 07:31:49;;;;;;;;;;;3.30;99.90;;;;;;4998384;28;20054;-58
2021/12/27 07:34:19;;;;;;;2.90;2.20;;;3.30;99.90;;;;;;4997782;28;19929;-59
2021/12/27 07:36:47;;;;;;;2.60;2.13;;;3.40;99.90;;;;;;4997813;28;20045;-61
2021/12/27 07:39:14;;;;;;;3.53;2.35;;;3.50;99.90;;;;;;4997685;28;20046;-57
2021/12/27 07:41:41;;;;;;;2.90;2.17;;;3.60;99.90;;;;;;4996978;28;20034;-58
2021/12/27 07:44:08;;;;;;;;;;;3.70;99.90;;;;;;4999327;28;20037;-57
2021/12/27 07:46:42;;;;;;;3.78;2.10;;;3.90;99.90;;;;;;4997848;28;19956;-58
2021/12/27 07:49:10;;;;;;;5.15;2.20;;;4.00;99.90;;;;;;4984161;28;20044;-59
2021/12/27 07:51:37;;;;;;;4.22;2.78;;;4.30;99.90;;;;;;4986554;28;20841;-57
2021/12/27 07:54:05;;;;;;;2.50;2.30;;;4.60;99.90;;;;;;4966277;28;20347;-56
2021/12/27 07:56:32;;;;;;;5.78;2.45;;;4.90;99.90;;;;;;4968807;28;20125;-57
2021/12/27 07:59:04;;;;;;;;;;;5.20;99.90;;;;;;4979246;28;20077;-57
2021/12/27 08:01:32;;;;;;;4.85;1.75;;;5.40;99.90;;;;;;4989687;28;19979;-60
2021/12/27 08:03:59;;;;;;;1.95;1.63;;;5.70;99.90;;;;;;4998761;28;20054;-59
2021/12/27 08:06:26;;;;;;;2.47;1.60;;;5.90;99.90;;;;;;4997456;28;20140;-59
2021/12/27 08:08:53;;;;;;;;;;;6.10;99.90;;;;;;4978026;28;20046;-57
2021/12/27 08:11:20;;;;;;;1.98;1.70;;;6.20;99.90;;;;;;4977105;28;19926;-57
2021/12/27 08:13:48;;;;;;;2.78;1.77;;;6.30;99.90;;;;;;4977359;28;20089;-56
2021/12/27 08:16:14;;;;;;;3.83;1.90;;;6.50;99.90;;;;;;4976461;28;20054;-56
2021/12/27 08:18:41;;;;;;;2.05;1.70;;;6.60;99.90;;;;;;4978446;28;20640;-56
2021/12/27 08:21:08;;;;;;;;;;;6.70;99.90;;;;;;4991655;28;20046;-57
2021/12/27 08:23:35;;;;;;;2.85;1.77;;;6.80;99.90;;;;;;4987767;28;19933;-56
2021/12/27 08:26:02;;;;;;;;;;;7.00;99.90;;;;;;4978725;28;20058;-55
2021/12/27 08:28:29;;;;;;;1.98;1.58;;;7.10;99.90;;;;;;4979046;28;20027;-56
2021/12/27 08:30:55;;;;;;;1.92;1.60;;;7.20;99.90;;;;;;4977300;28;20050;-57
2021/12/27 08:33:22;;;;;;;2.80;1.80;;;7.30;99.90;;;;;;4977404;28;20057;-57
2021/12/27 08:35:49;;;;;;;;;;;7.50;99.90;;;;;;4977774;28;20046;-59
2021/12/27 08:38:18;;;;;;;3.05;2.10;;;7.70;99.90;;;;;;4976648;28;19988;-57
2021/12/27 08:40:45;;;;;;;2.08;1.75;;;7.80;99.90;;;;;;4976102;28;20531;-57
2021/12/27 08:43:12;;;;;;;2.88;1.40;;;8.00;99.90;;;;;;4977843;28;20104;-57
2021/12/27 08:45:39;;;;;;;;;;;8.10;99.90;;;;;;4975967;28;20046;-57
2021/12/27 08:48:06;;;;;;;2.58;1.83;;;8.30;99.90;;;;;;4986602;28;19933;-57
2021/12/27 08:50:33;;;;;;;2.05;1.65;;;8.40;99.90;;;;;;4977410;28;20108;-57
2021/12/27 08:53:00;;;;;;;4.97;1.92;;;8.50;99.90;;;;;;4984111;28;20050;-59
2021/12/27 08:55:27;;;;;;;4.05;1.80;;;8.60;99.90;;;;;;4979352;28;20073;-59
2021/12/27 08:57:53;;;;;;;3.33;2.15;;;8.60;99.90;;;;;;4977287;28;20046;-59
2021/12/27 09:00:20;;;;;;;;;;;8.70;99.90;;;;;;4977520;28;20042;-60
2021/12/27 09:02:47;;;;;;;3.47;2.28;;;8.80;99.90;;;;;;4976553;28;19929;-59
2021/12/27 09:05:14;;;;;;;2.22;1.70;;;8.90;99.90;;;;;;4991464;28;20041;-60
2021/12/27 09:07:41;;;;;;;2.30;1.83;;;9.00;99.90;;;;;;4997015;28;20120;-59
2021/12/27 09:10:09;;;;;;;3.90;2.72;;;9.10;99.90;;;;;;4996305;28;20685;-59
2021/12/27 09:12:38;;;;;;;3.10;2.00;;;9.20;99.90;;;;;;4996240;28;20045;-59
2021/12/27 09:15:06;;;;;;;3.33;2.20;;;9.30;99.90;;;;;;4997184;28;20053;-59
2021/12/27 09:17:33;;;;;;;2.60;1.77;;;9.40;99.90;;;;;;4993391;28;20080;-59
2021/12/27 09:20:00;;;;;;;3.78;2.42;;;9.50;99.90;;;;;;4981344;28;20097;-57
2021/12/27 09:22:27;;;;;;;3.10;2.38;;;9.60;99.90;;;;;;4976120;28;20918;-59
2021/12/27 09:24:55;;;;;;;3.72;2.20;;;9.70;99.90;;;;;;4976527;28;20070;-57
2021/12/27 09:27:22;;;;;;;7.00;2.80;;;9.70;99.90;;;;;;4995747;28;20120;-56
2021/12/27 09:29:49;;;;;;;3.92;1.98;;;9.80;99.90;;;;;;4995407;28;20058;-56
2021/12/27 09:32:16;;;;;;;3.88;2.38;;;9.90;99.90;;;;;;4996855;28;20045;-56
2021/12/27 09:34:43;;;;;;;;;;;10.00;99.90;;;;;;4993531;28;20068;-56
2021/12/27 09:37:10;;;;;;;2.58;2.03;;;10.20;99.90;;;;;;4974366;28;20040;-56
2021/12/27 09:39:36;;;;;;;5.07;2.45;;;10.40;99.90;;;;;;4975215;28;20050;-57
2021/12/27 09:42:04;;;;;;;6.57;2.35;;;10.50;99.90;;;;;;4975931;28;20560;-56
2021/12/27 09:44:31;;;;;;;3.78;2.70;;;10.60;99.90;;;;;;4978396;28;20446;-57
2021/12/27 09:46:58;;;;;;;3.20;1.98;;;10.80;99.90;;;;;;4989205;28;20505;-55
2021/12/27 09:49:29;;;;;;;2.75;1.90;;;10.80;99.90;;;;;;4972372;28;20728;-59
2021/12/27 09:51:58;;;;;;;4.55;2.25;;;11.00;99.90;;;;;;4967420;28;20058;-56
2021/12/27 09:54:29;;;;;;;2.58;1.90;;;11.10;99.90;;;;;;4977705;28;20050;-56
2021/12/27 09:56:56;;;;;;;2.42;2.10;;;11.20;99.90;;;;;;4976605;28;20058;-56
2021/12/27 09:59:23;;;;;;;2.80;2.00;;;11.30;99.90;;;;;;4988349;28;20305;-53
2021/12/27 10:01:52;;;;;;;2.38;2.05;;;11.40;99.90;;;;;;4979192;28;20117;-57
2021/12/27 10:04:20;;;;;;;2.13;1.90;;;11.50;99.90;;;;;;4977287;28;20413;-56
2021/12/27 10:06:49;;;;;;;3.92;2.30;;;11.50;99.90;;;;;;4976672;28;20050;-56
2021/12/27 10:09:16;;;;;;;3.40;2.70;;;11.50;99.90;;;;;;4975760;28;20318;-61
2021/12/27 10:11:46;;;;;;;2.58;1.88;;;11.60;99.90;;;;;;4974042;28;20046;-56
2021/12/27 10:14:16;;;;;;;14.38;4.25;;;11.50;99.90;;;;;;4976089;28;20046;-56
2021/12/27 10:16:47;;;;;;;43.95;14.32;;;11.60;99.90;;;;;;4993442;28;20492;-60
2021/12/27 10:19:17;;;;;;;13.68;5.55;;;11.70;99.90;;;;;;4974924;28;20520;-57
2021/12/27 10:21:46;;;;;;;7.75;3.22;;;11.70;99.90;;;;;;4975661;28;20260;-57
2021/12/27 10:24:16;;;;;;;3.80;2.42;;;11.80;99.90;;;;;;4985147;28;20145;-57
2021/12/27 10:26:45;;;;;;;6.78;2.40;;;11.80;99.90;;;;;;4975699;28;20054;-57
2021/12/27 10:29:39;;;;;;;5.03;2.67;;;11.80;99.90;;;;;;4990348;28;20628;-57
2021/12/27 10:32:06;;;;;;;3.55;2.55;;;11.80;99.90;;;;;;4973733;28;20116;-60
2021/12/27 10:34:34;;;;;;;;;;;11.80;99.90;;;;;;4976568;28;20046;-57
2021/12/27 10:37:07;;;;;;;2.75;2.08;;;11.80;99.90;;;;;;4974931;28;19965;-62
2021/12/27 10:39:54;;;;;;;3.45;2.50;;;11.90;99.90;;;;;;4976471;28;20046;-56
2021/12/27 10:42:24;;;;;;;3.03;2.00;;;11.90;99.90;;;;;;4975636;28;20054;-60
2021/12/27 10:44:53;;;;;;;4.63;2.38;;;11.90;99.90;;;;;;4976099;28;20128;-58
2021/12/27 10:47:32;;;;;;;2.08;1.90;;;12.00;99.90;;;;;;4974839;28;20050;-58
2021/12/27 10:50:15;;;;;;;3.35;2.60;;;12.00;99.90;;;;;;4976026;28;20050;-58
2021/12/27 10:52:57;;;;;;;2.00;1.80;;;12.00;99.90;;;;;;4978933;28;20118;-57
2021/12/27 10:55:38;;;;;;;3.45;2.10;;;12.00;99.90;;;;;;5014375;28;20610;-57
2021/12/27 10:58:26;;;;;;;2.22;1.80;;;12.00;99.90;;;;;;4999894;28;20046;-61
2021/12/27 11:00:58;;;;;;;2.33;2.13;;;12.00;99.90;;;;;;5005204;28;20504;-61
2021/12/27 11:03:42;;;;;;;3.35;2.17;;;11.90;99.90;;;;;;4980704;28;20870;-61
2021/12/27 11:06:12;;;;;;;3.13;2.10;;;11.90;99.90;;;;;;4980031;28;20046;-61
2021/12/27 11:08:41;;;;;;;2.80;1.88;;;11.90;99.90;;;;;;4979833;28;20046;-61
2021/12/27 11:11:09;;;;;;;3.20;2.08;;;12.00;99.90;;;;;;4979427;28;20193;-61
2021/12/27 11:13:37;;;;;;;2.28;2.00;;;12.00;99.90;;;;;;4980038;28;20047;-61
2021/12/27 11:16:04;;;;;;;3.17;1.90;;;12.10;99.90;;;;;;4980307;28;20571;-61
2021/12/27 11:18:31;;;;;;;3.67;2.35;;;12.10;99.90;;;;;;4982431;28;20125;-61
2021/12/27 11:21:00;;;;;;;;;;;12.10;99.90;;;;;;4981547;28;20125;-61
2021/12/27 11:23:28;;;;;;;2.80;2.08;;;12.10;99.90;;;;;;4995155;28;19930;-61
2021/12/27 11:26:23;;;;;;;2.65;2.05;;;12.10;99.90;;;;;;4979809;28;20060;-61
2021/12/27 11:28:50;;;;;;;3.17;2.28;;;12.10;99.90;;;;;;4978234;28;20563;-58
2021/12/27 11:31:17;;;;;;;2.80;1.85;;;12.00;99.90;;;;;;4979982;28;20069;-58
2021/12/27 11:34:13;;;;;;;3.38;2.60;;;11.90;99.90;;;;;;4978816;28;20054;-58
2021/12/27 11:36:52;;;;;;;3.42;2.33;;;11.80;99.90;;;;;;4979390;28;20076;-58
2021/12/27 11:39:28;;;;;;;3.45;2.53;;;11.60;99.90;;;;;;4997403;28;20054;-59
2021/12/27 11:42:00;;;;;;;4.95;2.80;;;11.50;99.90;;;;;;4997438;28;20041;-59
2021/12/27 11:44:46;;;;;;;4.30;2.85;;;11.40;99.90;;;;;;5013581;28;20050;-59
2021/12/27 11:47:26;;;;;;;4.22;2.90;;;11.20;99.90;;;;;;4981657;28;20643;-59
2021/12/27 11:49:58;;;;;;;3.42;2.85;;;11.20;99.90;;;;;;4978457;28;20062;-59
2021/12/27 11:52:31;;;;;;;5.13;3.13;;;11.20;99.90;;;;;;4987447;28;20096;-59
2021/12/27 11:55:05;;;;;;;3.42;2.95;;;11.20;99.90;;;;;;4998167;28;20457;-60
2021/12/27 11:57:50;;;;;;;3.78;2.53;;;11.30;99.90;;;;;;4997322;28;20045;-59
2021/12/27 12:00:17;;;;;;;3.28;2.40;;;11.40;99.90;;;;;;4992118;28;20043;-59
2021/12/27 12:02:48;;;;;;;;;;;11.50;99.90;;;;;;4978126;28;20112;-58
2021/12/27 12:05:39;;;;;;;3.00;2.35;;;11.60;99.90;;;;;;4978005;28;19925;-61
2021/12/27 12:08:08;;;;;;;3.25;2.10;;;11.70;99.90;;;;;;4979644;28;20465;-61
2021/12/27 12:10:37;;;;;;;2.60;2.40;;;11.60;99.90;;;;;;4978439;28;20532;-61
2021/12/27 12:13:37;;;;;;;2.20;1.90;;;11.60;99.90;;;;;;4979294;28;20058;-61
2021/12/27 12:16:14;;;;;;;2.85;1.88;;;11.60;99.90;;;;;;4979490;28;20595;-62
2021/12/27 12:19:07;;;;;;;2.38;2.08;;;11.50;99.90;;;;;;4991528;28;20043;-62
2021/12/27 12:21:34;;;;;;;3.95;2.10;;;11.20;99.90;;;;;;4978693;28;20571;-62
2021/12/27 12:24:12;;;;;;;4.28;2.88;;;11.00;99.90;;;;;;4978588;28;20484;-62
2021/12/27 12:27:00;;;;;;;3.60;2.75;;;10.80;99.90;;;;;;4978917;28;20488;-61
2021/12/27 12:29:38;;;;;;;5.25;2.00;;;10.50;99.90;;;;;;4979031;28;20069;-61
2021/12/27 12:32:07;;;;;;;3.70;2.42;;;10.20;99.90;;;;;;4979160;28;20441;-61
2021/12/27 12:34:35;;;;;;;2.38;1.85;;;9.90;99.90;;;;;;4977508;28;20049;-61
2021/12/27 12:37:06;;;;;;;3.00;2.70;;;9.70;99.90;;;;;;4979029;28;20070;-61
2021/12/27 12:39:51;;;;;;;3.47;2.38;;;9.50;99.90;;;;;;4978264;28;20038;-61
2021/12/27 12:42:21;;;;;;;3.45;2.40;;;9.30;99.90;;;;;;4978267;28;20492;-61
2021/12/27 12:44:55;;;;;;;4.28;2.92;;;9.10;99.90;;;;;;4978939;28;20046;-61
2021/12/27 12:47:41;;;;;;;2.85;2.47;;;9.00;99.90;;;;;;4977105;28;20072;-61
2021/12/27 12:50:13;;;;;;;2.60;2.40;;;8.80;99.90;;;;;;4971618;28;20042;-61
2021/12/27 12:52:58;;;;;;;4.40;3.05;;;8.70;99.90;;;;;;4978870;28;20101;-62
2021/12/27 12:55:28;;;;;;;4.13;3.13;;;8.70;99.90;;;;;;4993867;28;20552;-59
2021/12/27 12:57:56;;;;;;;3.63;2.88;;;8.70;99.90;;;;;;4990477;28;20439;-60
2021/12/27 13:00:28;;;;;;;5.25;2.97;;;8.70;99.90;;;;;;4990756;28;20139;-59
2021/12/27 13:03:14;;;;;;;4.68;3.03;;;8.70;99.90;;;;;;4997334;28;20042;-59
2021/12/27 13:05:42;;;;;;;3.47;2.63;;;8.60;99.90;;;;;;4981462;28;20068;-59
2021/12/27 13:08:13;;;;;;;2.90;2.60;;;8.60;99.90;;;;;;4976335;28;20371;-63
2021/12/27 13:10:40;;;;;;;4.85;3.10;;;8.60;99.90;;;;;;4977671;28;20062;-58
2021/12/27 13:13:10;;;;;;;3.95;2.88;;;8.50;99.90;;;;;;4975870;28;20072;-58
2021/12/27 13:15:40;;;;;;;3.92;3.40;;;8.50;99.90;;;;;;4976574;28;20050;-59
2021/12/27 13:18:06;;;;;;;2.90;2.60;;;8.40;99.90;;;;;;4979054;28;20052;-59
2021/12/27 13:20:42;;;;;;;5.25;3.35;;;8.20;99.90;;;;;;4958460;28;20484;-61
2021/12/27 13:23:14;;;;;;;4.65;3.47;;;8.10;99.90;;;;;;4958359;28;20038;-57